Time;durP1;ratioP1;P1;durP2;ratioP2;P2;SDS_P1;SDS_P2;PMS_P1;PMS_P2;Temp;Humidity;BMP_temperature;BMP_pressure;BME280_temperature;BME280_humidity;BME280_pressure;Samples;Min_cycle;Max_cycle;Signal;HPM_P1;HPM_P2
2022/01/27 00:05:47;;;;;;;28.05;15.65;;;6.60;84.80;;;;;;5049535;28;20052;-71
2022/01/27 00:08:18;;;;;;;35.05;14.50;;;6.70;84.80;;;;;;5066615;28;20098;-70
2022/01/27 00:13:27;;;;;;;36.60;15.70;;;6.70;84.50;;;;;;5039641;28;20056;-71
2022/01/27 00:16:00;;;;;;;34.35;14.93;;;6.70;84.50;;;;;;5050564;28;20036;-70
2022/01/27 00:18:29;;;;;;;39.40;14.88;;;6.70;84.70;;;;;;5047506;28;20123;-71
2022/01/27 00:20:55;;;;;;;32.10;13.65;;;6.70;84.60;;;;;;5054567;28;20501;-71
2022/01/27 00:23:21;;;;;;;25.50;13.52;;;6.70;84.60;;;;;;5049725;28;20094;-70
2022/01/27 00:25:46;;;;;;;38.08;13.85;;;6.60;84.70;;;;;;5034982;28;20044;-70
2022/01/27 00:28:12;;;;;;;31.83;14.07;;;6.50;85.10;;;;;;5047970;28;20044;-70
2022/01/27 00:30:38;;;;;;;29.70;14.07;;;6.50;85.20;;;;;;5051714;28;20069;-70
2022/01/27 00:33:05;;;;;;;29.58;15.55;;;6.50;85.20;;;;;;5048896;28;20087;-70
2022/01/27 00:35:31;;;;;;;35.10;15.45;;;6.40;85.10;;;;;;5048236;28;20045;-70
2022/01/27 00:37:57;;;;;;;26.52;13.23;;;6.40;85.20;;;;;;5047931;28;20588;-70
2022/01/27 00:40:23;;;;;;;32.10;15.40;;;6.30;85.40;;;;;;5049407;28;20037;-70
2022/01/27 00:42:49;;;;;;;32.58;15.35;;;6.30;85.40;;;;;;5059460;28;20504;-70
2022/01/27 00:45:14;;;;;;;28.73;14.40;;;6.20;85.50;;;;;;5052302;28;20153;-69
2022/01/27 00:47:40;;;;;;;32.95;14.70;;;6.30;85.50;;;;;;5050726;28;20041;-70
2022/01/27 00:50:07;;;;;;;31.52;14.68;;;6.30;85.30;;;;;;5047780;28;20608;-70
2022/01/27 00:52:46;;;;;;;37.20;17.13;;;6.20;85.00;;;;;;5065979;28;20070;-69
2022/01/27 00:55:13;;;;;;;32.80;15.35;;;6.20;84.90;;;;;;5062259;28;20401;-70
2022/01/27 01:00:08;;;;;;;33.25;16.70;;;6.20;85.10;;;;;;5043040;28;20449;-69
2022/01/27 01:02:55;;;;;;;32.38;16.75;;;6.10;85.30;;;;;;5049282;28;20132;-70
2022/01/27 01:05:57;;;;;;;30.30;15.65;;;6.10;85.50;;;;;;5048593;28;20041;-70
2022/01/27 01:16:00;;;;;;;33.80;16.38;;;6.10;85.50;;;;;;5056568;28;20102;-70
2022/01/27 01:29:50;;;;;;;33.60;16.50;;;6.10;85.40;;;;;;5048759;28;20099;-70
2022/01/27 01:32:51;;;;;;;38.88;17.23;;;6.00;85.70;;;;;;5043824;28;20127;-70
2022/01/27 01:35:08;;;;;;;39.95;17.90;;;6.00;85.60;;;;;;5062138;28;20152;-70
2022/01/27 01:37:40;;;;;;;36.35;15.98;;;6.10;85.30;;;;;;5048055;28;20110;-70
2022/01/27 01:40:09;;;;;;;36.72;18.50;;;6.00;85.60;;;;;;5050224;28;20120;-70
2022/01/27 01:42:35;;;;;;;38.47;19.73;;;6.00;85.50;;;;;;5048531;28;20055;-70
2022/01/27 01:45:05;;;;;;;32.60;16.67;;;5.90;85.70;;;;;;5049557;28;20171;-70
2022/01/27 01:47:31;;;;;;;38.60;16.65;;;5.90;85.70;;;;;;5055964;28;20103;-70
2022/01/27 01:49:57;;;;;;;31.88;16.85;;;5.90;85.90;;;;;;5048501;28;20517;-70
2022/01/27 01:52:24;;;;;;;31.30;18.65;;;5.80;85.80;;;;;;5053868;28;20090;-70
2022/01/27 01:54:51;;;;;;;36.72;19.35;;;5.80;86.00;;;;;;5063951;28;20047;-71
2022/01/27 01:57:17;;;;;;;30.33;17.25;;;5.80;86.00;;;;;;5048712;28;20041;-70
2022/01/27 01:59:43;;;;;;;36.33;18.70;;;5.80;85.90;;;;;;5048243;28;20114;-69
2022/01/27 02:02:12;;;;;;;34.33;18.23;;;5.80;86.00;;;;;;5051524;28;20137;-69
2022/01/27 02:04:39;;;;;;;35.83;18.88;;;5.80;86.10;;;;;;5069980;28;20505;-70
2022/01/27 02:07:11;;;;;;;40.30;18.63;;;5.90;86.00;;;;;;5070517;28;20086;-69
2022/01/27 02:18:01;;;;;;;40.53;20.13;;;6.00;85.80;;;;;;5051325;28;20041;-69
2022/01/27 02:20:32;;;;;;;40.95;19.30;;;6.00;85.80;;;;;;5057958;28;20420;-70
2022/01/27 02:22:58;;;;;;;38.87;19.53;;;6.00;85.80;;;;;;5032427;28;20223;-69
2022/01/27 02:25:24;;;;;;;29.35;17.67;;;6.00;85.80;;;;;;5052036;28;20044;-70
2022/01/27 02:27:57;;;;;;;45.55;20.63;;;6.10;85.90;;;;;;5051531;28;20536;-70
2022/01/27 02:30:23;;;;;;;33.13;19.23;;;6.10;85.60;;;;;;5056501;28;20044;-69
2022/01/27 02:32:53;;;;;;;40.22;19.42;;;6.10;85.60;;;;;;5063536;28;20124;-70
2022/01/27 02:35:24;;;;;;;35.17;18.45;;;6.10;85.50;;;;;;5053038;28;20048;-71
2022/01/27 02:37:51;;;;;;;40.45;19.50;;;6.10;85.60;;;;;;5051412;28;20374;-69
2022/01/27 02:40:26;;;;;;;36.22;19.52;;;6.20;85.70;;;;;;5054151;28;20068;-70
2022/01/27 02:42:52;;;;;;;37.50;19.02;;;6.20;85.70;;;;;;5062775;28;20079;-69
2022/01/27 02:45:36;;;;;;;36.10;19.45;;;6.20;85.80;;;;;;5052298;28;20413;-70
2022/01/27 02:48:02;;;;;;;36.35;18.98;;;6.20;85.80;;;;;;5058458;28;20070;-70
2022/01/27 02:50:28;;;;;;;35.85;19.45;;;6.30;85.50;;;;;;5069244;28;20116;-70
2022/01/27 02:52:54;;;;;;;36.90;20.92;;;6.30;85.50;;;;;;5056351;28;20105;-69
2022/01/27 02:55:19;;;;;;;42.83;20.73;;;6.30;85.50;;;;;;5038274;28;20060;-70
2022/01/27 02:57:45;;;;;;;34.78;19.48;;;6.30;85.70;;;;;;5057778;28;20060;-69
2022/01/27 03:00:11;;;;;;;38.65;20.15;;;6.30;85.90;;;;;;5050267;28;20049;-70
2022/01/27 03:02:37;;;;;;;36.13;18.20;;;6.20;86.00;;;;;;5057883;28;20413;-69
2022/01/27 03:05:04;;;;;;;31.30;17.02;;;6.30;85.90;;;;;;5054168;28;20052;-69
2022/01/27 03:07:29;;;;;;;42.83;18.50;;;6.30;86.00;;;;;;5051103;28;20071;-70
2022/01/27 03:09:55;;;;;;;35.05;17.60;;;6.40;85.90;;;;;;5050075;28;20033;-70
2022/01/27 03:12:25;;;;;;;40.17;19.00;;;6.40;86.10;;;;;;5051910;28;20056;-70
2022/01/27 03:14:50;;;;;;;38.80;17.77;;;6.40;85.80;;;;;;5049293;28;20052;-70
2022/01/27 03:17:16;;;;;;;43.78;21.65;;;6.40;85.90;;;;;;5050839;28;20044;-70
2022/01/27 03:19:42;;;;;;;43.28;19.13;;;6.40;86.10;;;;;;5050861;28;20075;-69
2022/01/27 03:22:08;;;;;;;37.42;18.08;;;6.50;86.00;;;;;;5056589;28;20078;-69
2022/01/27 03:24:35;;;;;;;34.25;17.75;;;6.50;86.00;;;;;;5052978;28;20045;-70
2022/01/27 03:27:01;;;;;;;41.97;17.48;;;6.50;86.10;;;;;;5050823;28;20378;-69
2022/01/27 03:29:28;;;;;;;33.85;16.77;;;6.40;86.20;;;;;;5049652;28;20424;-70
2022/01/27 03:31:54;;;;;;;39.47;18.25;;;6.60;86.00;;;;;;5052803;28;20052;-70
2022/01/27 03:34:21;;;;;;;32.33;15.23;;;6.50;86.20;;;;;;5052372;28;20075;-70
2022/01/27 03:36:46;;;;;;;34.15;16.55;;;6.50;86.30;;;;;;5045102;28;20142;-69
2022/01/27 03:39:16;;;;;;;36.30;15.63;;;6.50;86.30;;;;;;5049469;28;20072;-69
2022/01/27 03:41:49;;;;;;;31.42;15.48;;;6.50;86.50;;;;;;5051095;28;20155;-70
2022/01/27 03:44:15;;;;;;;33.95;14.80;;;6.60;86.50;;;;;;5064025;28;20106;-70
2022/01/27 03:46:40;;;;;;;38.53;15.93;;;6.60;86.30;;;;;;5061666;28;20096;-70
2022/01/27 03:49:06;;;;;;;40.28;15.88;;;6.60;86.30;;;;;;5051877;28;20067;-70
2022/01/27 03:51:31;;;;;;;28.30;15.80;;;6.60;86.60;;;;;;5032398;28;20045;-69
2022/01/27 03:53:57;;;;;;;36.33;14.88;;;6.60;86.60;;;;;;5052868;28;20067;-69
2022/01/27 03:56:22;;;;;;;37.83;16.08;;;6.60;86.90;;;;;;5062525;28;20037;-69
2022/01/27 03:58:48;;;;;;;34.17;14.80;;;6.60;86.70;;;;;;5050341;28;20040;-70
2022/01/27 04:01:14;;;;;;;33.03;15.35;;;6.60;86.80;;;;;;5049067;28;20575;-69
2022/01/27 04:03:40;;;;;;;38.28;16.45;;;6.70;86.70;;;;;;5052613;28;20390;-69
2022/01/27 04:06:08;;;;;;;32.63;15.95;;;6.70;86.70;;;;;;5069238;28;20100;-70
2022/01/27 04:08:37;;;;;;;34.67;15.93;;;6.60;86.90;;;;;;5051180;28;20045;-70
2022/01/27 04:11:04;;;;;;;35.85;14.98;;;6.70;86.90;;;;;;5049406;28;20048;-70
2022/01/27 04:13:30;;;;;;;40.90;15.88;;;6.70;86.90;;;;;;5060517;28;20449;-70
2022/01/27 04:15:56;;;;;;;34.95;13.43;;;6.70;87.10;;;;;;5061190;28;20132;-69
2022/01/27 04:18:21;;;;;;;34.72;13.00;;;6.70;87.00;;;;;;5058168;28;20052;-69
2022/01/27 04:20:47;;;;;;;38.13;14.32;;;6.80;87.10;;;;;;5048701;28;20040;-69
2022/01/27 04:23:12;;;;;;;34.97;14.40;;;6.70;87.00;;;;;;5049639;28;20397;-69
2022/01/27 04:25:38;;;;;;;32.92;14.73;;;6.80;87.10;;;;;;5048783;28;20479;-70
2022/01/27 04:28:09;;;;;;;32.33;14.63;;;6.80;87.00;;;;;;5056878;28;20063;-70
2022/01/27 04:30:35;;;;;;;25.95;13.25;;;6.80;87.00;;;;;;5047213;28;20509;-69
2022/01/27 04:33:03;;;;;;;32.70;13.13;;;6.80;87.40;;;;;;5037490;28;20040;-69
2022/01/27 04:35:32;;;;;;;27.27;11.52;;;6.80;87.50;;;;;;5065543;28;20087;-69
2022/01/27 04:46:07;;;;;;;30.13;11.38;;;6.80;87.90;;;;;;5066885;28;20057;-69
2022/01/27 04:48:40;;;;;;;35.55;13.45;;;6.80;87.90;;;;;;5055112;28;20123;-70
2022/01/27 04:51:08;;;;;;;29.00;11.70;;;6.90;87.80;;;;;;5048279;28;20116;-69
2022/01/27 04:53:44;;;;;;;35.03;12.95;;;6.90;87.70;;;;;;5048291;28;20048;-70
2022/01/27 04:56:13;;;;;;;32.58;12.25;;;6.90;87.80;;;;;;5033081;28;20589;-69
2022/01/27 04:58:41;;;;;;;25.65;11.90;;;6.90;87.90;;;;;;5053675;28;20509;-69
2022/01/27 05:01:07;;;;;;;35.20;12.15;;;6.90;87.80;;;;;;5062008;28;20536;-70
2022/01/27 05:03:39;;;;;;;37.22;11.45;;;7.00;87.70;;;;;;5052779;28;20063;-69
2022/01/27 05:06:05;;;;;;;33.95;11.23;;;7.00;87.70;;;;;;5047683;28;20417;-69
2022/01/27 05:08:31;;;;;;;38.13;13.77;;;6.90;88.00;;;;;;5046300;28;20045;-70
2022/01/27 05:11:33;;;;;;;33.95;12.48;;;7.00;88.20;;;;;;5048586;28;20131;-69
2022/01/27 05:13:56;;;;;;;28.55;12.23;;;7.00;88.30;;;;;;5046715;28;20130;-69
2022/01/27 05:16:22;;;;;;;40.55;13.73;;;7.00;89.00;;;;;;5046250;28;20045;-70
2022/01/27 05:18:48;;;;;;;41.40;13.18;;;6.90;89.50;;;;;;5046811;28;20041;-69
2022/01/27 05:21:14;;;;;;;32.58;12.93;;;6.90;89.50;;;;;;5047965;28;20120;-69
2022/01/27 05:23:39;;;;;;;30.40;11.88;;;6.80;89.90;;;;;;5047864;28;20037;-70
2022/01/27 05:26:05;;;;;;;43.10;15.38;;;6.90;89.90;;;;;;5047577;28;20455;-69
2022/01/27 05:28:30;;;;;;;38.70;12.30;;;6.90;89.80;;;;;;5047732;28;20202;-70
2022/01/27 05:30:57;;;;;;;36.25;12.85;;;6.80;90.00;;;;;;5047425;28;20047;-69
2022/01/27 05:33:23;;;;;;;30.23;12.38;;;6.90;89.80;;;;;;5046568;28;20509;-70
2022/01/27 05:35:48;;;;;;;41.65;12.45;;;6.90;89.60;;;;;;5029942;28;20041;-69
2022/01/27 05:38:15;;;;;;;33.85;13.57;;;6.90;89.70;;;;;;5050432;28;20044;-69
2022/01/27 05:40:43;;;;;;;32.17;13.57;;;6.90;89.70;;;;;;5050735;28;20076;-69
2022/01/27 05:43:09;;;;;;;27.83;12.75;;;7.00;89.70;;;;;;5051708;28;20041;-70
2022/01/27 05:45:36;;;;;;;34.70;13.77;;;7.00;90.00;;;;;;5050165;28;20501;-70
2022/01/27 05:48:01;;;;;;;32.72;13.05;;;7.10;90.00;;;;;;5060704;28;20040;-69
2022/01/27 05:50:27;;;;;;;40.22;13.35;;;7.00;90.10;;;;;;5052590;28;20037;-67
2022/01/27 05:52:52;;;;;;;49.35;16.10;;;6.90;90.80;;;;;;5052272;28;20401;-69
2022/01/27 05:55:18;;;;;;;40.40;14.63;;;6.90;91.00;;;;;;5051764;28;20056;-70
2022/01/27 05:57:44;;;;;;;30.50;13.23;;;6.90;90.90;;;;;;5051985;28;20049;-69
2022/01/27 06:00:10;;;;;;;43.08;13.60;;;6.90;91.30;;;;;;5050181;28;20473;-70
2022/01/27 06:02:36;;;;;;;36.95;14.45;;;6.90;91.40;;;;;;5032761;28;20060;-69
2022/01/27 06:05:03;;;;;;;36.05;12.68;;;6.80;91.70;;;;;;5050350;28;20096;-68
2022/01/27 06:07:29;;;;;;;48.67;16.00;;;6.80;91.90;;;;;;5049300;28;20044;-68
2022/01/27 06:09:56;;;;;;;34.60;13.32;;;6.70;92.10;;;;;;5050146;28;20052;-68
2022/01/27 06:12:22;;;;;;;38.63;15.13;;;6.80;92.00;;;;;;5050305;28;20458;-67
2022/01/27 06:14:47;;;;;;;38.65;14.25;;;6.70;92.30;;;;;;5051271;28;20044;-70
2022/01/27 06:17:13;;;;;;;36.50;13.57;;;6.70;92.50;;;;;;5051968;28;20048;-70
2022/01/27 06:19:43;;;;;;;42.85;13.15;;;6.80;92.40;;;;;;5051257;28;20124;-69
2022/01/27 06:22:11;;;;;;;34.97;12.77;;;6.90;92.20;;;;;;5054758;28;20037;-70
2022/01/27 06:24:42;;;;;;;35.15;14.70;;;6.80;92.60;;;;;;5057279;28;20055;-69
2022/01/27 06:27:08;;;;;;;45.60;15.02;;;6.90;92.50;;;;;;5051193;28;20080;-69
2022/01/27 06:29:34;;;;;;;37.60;15.82;;;6.80;92.70;;;;;;5050836;28;20048;-69
2022/01/27 06:32:00;;;;;;;40.40;14.77;;;6.80;92.80;;;;;;5066875;28;20044;-69
2022/01/27 06:34:26;;;;;;;36.22;14.80;;;6.80;92.70;;;;;;5058784;28;20501;-69
2022/01/27 06:36:52;;;;;;;44.92;13.93;;;6.80;93.20;;;;;;5064863;28;20183;-69
2022/01/27 06:39:17;;;;;;;33.50;13.15;;;6.80;93.10;;;;;;5052155;28;20045;-69
2022/01/27 06:41:44;;;;;;;36.13;13.05;;;6.80;93.20;;;;;;5050764;28;20040;-69
2022/01/27 06:44:10;;;;;;;33.72;14.05;;;6.90;93.10;;;;;;5055454;28;20048;-69
2022/01/27 06:46:36;;;;;;;50.78;13.75;;;6.90;93.10;;;;;;5053688;28;20040;-69
2022/01/27 06:49:05;;;;;;;35.45;13.18;;;6.90;93.10;;;;;;5052124;28;20082;-69
2022/01/27 06:51:31;;;;;;;30.83;12.15;;;6.90;93.00;;;;;;5050694;28;20037;-69
2022/01/27 06:53:58;;;;;;;34.20;12.48;;;6.90;93.30;;;;;;5050997;28;20098;-69
2022/01/27 06:56:27;;;;;;;38.97;13.13;;;6.90;93.30;;;;;;5050080;28;20041;-69
2022/01/27 06:58:53;;;;;;;38.35;13.13;;;6.90;93.10;;;;;;5053833;28;20115;-70
2022/01/27 07:01:19;;;;;;;29.30;11.32;;;6.90;93.30;;;;;;5052212;28;20055;-70
2022/01/27 07:03:44;;;;;;;31.58;12.52;;;6.90;93.30;;;;;;5050616;28;20417;-69
2022/01/27 07:06:12;;;;;;;38.35;11.68;;;7.00;93.20;;;;;;5055195;28;20049;-68
2022/01/27 07:08:38;;;;;;;34.83;12.27;;;7.00;93.20;;;;;;5052807;28;20052;-69
2022/01/27 07:11:04;;;;;;;45.13;13.40;;;7.00;93.20;;;;;;5051397;28;20052;-69
2022/01/27 07:13:29;;;;;;;35.17;12.15;;;7.00;93.10;;;;;;5049524;28;20045;-70
2022/01/27 07:15:56;;;;;;;37.00;11.98;;;7.00;93.20;;;;;;5052147;28;20437;-67
2022/01/27 07:18:22;;;;;;;36.50;13.77;;;7.00;93.10;;;;;;5051192;28;20045;-69
2022/01/27 07:20:47;;;;;;;34.63;11.80;;;7.00;93.00;;;;;;5049410;28;20107;-69
2022/01/27 07:23:13;;;;;;;32.05;10.82;;;7.10;93.00;;;;;;5048450;28;20128;-69
2022/01/27 07:25:39;;;;;;;34.50;11.82;;;7.10;92.90;;;;;;5031712;28;20057;-71
2022/01/27 07:28:05;;;;;;;35.20;10.70;;;7.10;92.70;;;;;;5047729;28;20063;-72
2022/01/27 07:30:30;;;;;;;33.38;11.57;;;7.10;92.60;;;;;;5049120;28;20037;-72
2022/01/27 07:32:56;;;;;;;34.22;10.80;;;7.20;92.60;;;;;;5048809;28;20462;-72
2022/01/27 07:35:21;;;;;;;38.72;12.30;;;7.20;92.60;;;;;;5049658;28;20508;-73
2022/01/27 07:37:47;;;;;;;27.77;10.45;;;7.20;92.50;;;;;;5049734;28;20107;-69
2022/01/27 07:40:13;;;;;;;40.25;10.32;;;7.30;92.40;;;;;;5049651;28;20557;-72
2022/01/27 07:42:40;;;;;;;34.40;10.15;;;7.30;92.30;;;;;;5048813;28;20200;-68
2022/01/27 07:45:07;;;;;;;35.65;9.88;;;7.30;92.40;;;;;;5049144;28;20051;-75
2022/01/27 07:47:34;;;;;;;30.40;10.20;;;7.40;92.10;;;;;;5030522;28;20080;-72
2022/01/27 07:49:59;;;;;;;37.58;9.40;;;7.40;92.10;;;;;;5048317;28;20095;-73
2022/01/27 07:52:25;;;;;;;30.92;9.32;;;7.40;92.20;;;;;;5050425;28;20044;-73
2022/01/27 07:54:51;;;;;;;31.88;10.00;;;7.40;92.00;;;;;;5031510;28;21166;-73
2022/01/27 07:57:17;;;;;;;26.90;8.88;;;7.40;92.10;;;;;;5049184;28;20044;-71
2022/01/27 07:59:43;;;;;;;26.63;9.65;;;7.40;92.10;;;;;;5046102;28;20041;-72
2022/01/27 08:02:08;;;;;;;31.42;10.73;;;7.50;91.90;;;;;;5040822;28;20095;-72
2022/01/27 08:04:34;;;;;;;42.00;10.77;;;7.60;92.00;;;;;;5049037;28;20051;-72
2022/01/27 08:07:03;;;;;;;31.58;7.75;;;7.50;91.90;;;;;;5048160;28;20045;-73
2022/01/27 08:09:29;;;;;;;24.40;8.18;;;7.50;92.10;;;;;;5049575;28;20033;-73
2022/01/27 08:11:55;;;;;;;27.88;7.75;;;7.60;92.00;;;;;;5031661;28;20143;-72
2022/01/27 08:14:20;;;;;;;27.38;7.72;;;7.60;92.10;;;;;;5048268;28;20128;-72
2022/01/27 08:16:46;;;;;;;27.35;7.88;;;7.60;92.00;;;;;;5048455;28;20091;-73
2022/01/27 08:19:12;;;;;;;33.88;8.63;;;7.50;92.10;;;;;;5049016;28;20045;-73
2022/01/27 08:21:38;;;;;;;28.52;8.25;;;7.60;92.10;;;;;;5048783;28;20413;-73
2022/01/27 08:24:03;;;;;;;27.80;8.63;;;7.70;91.80;;;;;;5049188;28;20468;-72
2022/01/27 08:31:53;;;;;;;38.58;8.85;;;7.70;91.90;;;;;;5049280;28;20060;-73
2022/01/27 08:34:28;;;;;;;23.58;8.38;;;7.70;91.70;;;;;;5048878;28;20048;-72
2022/01/27 08:36:54;;;;;;;22.88;6.75;;;7.70;91.80;;;;;;5047837;28;20051;-72
2022/01/27 08:39:20;;;;;;;28.77;6.88;;;7.80;91.50;;;;;;5048944;28;20037;-71
2022/01/27 08:41:45;;;;;;;21.90;7.60;;;7.80;91.40;;;;;;5049291;28;20037;-71
2022/01/27 08:44:11;;;;;;;23.17;7.47;;;7.70;91.50;;;;;;5048898;28;20044;-71
2022/01/27 08:46:37;;;;;;;32.63;7.10;;;7.70;91.60;;;;;;5049307;28;20090;-72
2022/01/27 08:49:03;;;;;;;21.80;8.20;;;7.70;91.50;;;;;;5048493;28;20045;-72
2022/01/27 08:51:30;;;;;;;24.73;8.07;;;7.70;91.60;;;;;;5048936;28;20155;-71
2022/01/27 08:53:56;;;;;;;21.45;6.18;;;7.80;91.60;;;;;;5048283;28;20561;-71
2022/01/27 08:56:22;;;;;;;29.52;6.95;;;8.00;91.30;;;;;;5049124;28;20406;-71
2022/01/27 08:58:49;;;;;;;26.13;6.93;;;8.00;91.10;;;;;;5047986;28;20045;-71
2022/01/27 09:01:15;;;;;;;23.30;6.25;;;8.00;91.10;;;;;;5037691;28;20546;-72
2022/01/27 09:03:40;;;;;;;24.83;6.75;;;8.10;90.90;;;;;;5046390;28;20132;-71
2022/01/27 09:06:06;;;;;;;29.50;7.20;;;8.00;91.10;;;;;;5048564;28;20120;-71
2022/01/27 09:08:32;;;;;;;29.52;5.80;;;8.10;91.10;;;;;;5048584;28;20049;-70
2022/01/27 09:10:58;;;;;;;26.67;7.13;;;8.10;90.90;;;;;;5047043;28;20040;-72
2022/01/27 09:13:23;;;;;;;23.35;5.55;;;8.20;91.10;;;;;;5051705;28;20174;-71
2022/01/27 09:15:50;;;;;;;28.30;5.90;;;8.10;90.90;;;;;;5050961;28;20137;-71
2022/01/27 09:18:17;;;;;;;29.10;6.40;;;8.10;90.90;;;;;;5051236;28;20045;-72
2022/01/27 09:20:43;;;;;;;24.05;7.63;;;8.10;90.80;;;;;;5052617;28;20041;-71
2022/01/27 09:23:14;;;;;;;25.45;6.80;;;8.10;90.80;;;;;;5051086;28;20045;-71
2022/01/27 09:25:45;;;;;;;29.73;7.70;;;8.10;90.80;;;;;;5050915;28;20044;-70
2022/01/27 09:28:13;;;;;;;30.13;7.50;;;8.10;91.10;;;;;;5052147;28;20087;-71
2022/01/27 09:30:40;;;;;;;24.27;7.28;;;8.10;91.00;;;;;;5058253;28;20064;-70
2022/01/27 09:33:05;;;;;;;30.85;6.70;;;8.10;91.00;;;;;;5051846;28;20116;-71
2022/01/27 09:35:31;;;;;;;30.23;6.28;;;8.10;90.90;;;;;;5052824;28;20124;-71
2022/01/27 09:37:59;;;;;;;25.15;6.55;;;8.10;91.20;;;;;;5051480;28;20041;-70
2022/01/27 09:40:26;;;;;;;25.35;6.32;;;8.10;91.20;;;;;;5051763;28;20112;-70
2022/01/27 09:42:54;;;;;;;30.98;6.57;;;8.10;91.10;;;;;;5049995;28;20441;-70
2022/01/27 09:45:20;;;;;;;30.20;7.72;;;8.10;91.20;;;;;;5049833;28;20502;-71
2022/01/27 09:47:55;;;;;;;28.85;7.65;;;8.20;91.10;;;;;;5051414;28;20044;-71
2022/01/27 09:50:28;;;;;;;33.80;6.70;;;8.20;91.20;;;;;;5051884;28;20045;-71
2022/01/27 09:52:54;;;;;;;30.15;7.03;;;8.30;91.20;;;;;;5050923;28;20053;-71
2022/01/27 09:55:21;;;;;;;22.98;6.70;;;8.30;91.20;;;;;;5052101;28;20425;-71
2022/01/27 09:57:47;;;;;;;41.00;10.80;;;8.30;91.10;;;;;;5052347;28;20329;-71
2022/01/27 10:00:14;;;;;;;31.85;7.60;;;8.40;90.90;;;;;;5051486;28;20037;-71
2022/01/27 10:02:59;;;;;;;25.52;7.32;;;8.40;91.10;;;;;;5052256;28;20108;-71
2022/01/27 10:05:25;;;;;;;22.45;7.70;;;8.40;91.00;;;;;;5051388;28;20040;-71
2022/01/27 10:07:50;;;;;;;27.65;6.78;;;8.40;91.00;;;;;;5050975;28;20037;-71
2022/01/27 10:10:17;;;;;;;31.15;6.75;;;8.40;90.90;;;;;;5051527;28;20082;-71
2022/01/27 10:12:49;;;;;;;24.35;7.22;;;8.40;90.60;;;;;;5050609;28;20501;-71
2022/01/27 10:15:19;;;;;;;15.05;5.13;;;8.50;90.60;;;;;;5052229;28;20049;-70
2022/01/27 10:18:05;;;;;;;24.25;6.60;;;8.40;90.70;;;;;;5051789;28;20103;-70
2022/01/27 10:20:31;;;;;;;24.95;7.28;;;8.30;91.00;;;;;;5051861;28;20041;-70
2022/01/27 10:23:31;;;;;;;30.08;6.05;;;8.30;91.10;;;;;;5050042;28;20053;-71
2022/01/27 10:26:07;;;;;;;31.05;7.22;;;8.40;91.10;;;;;;5051029;28;20589;-71
2022/01/27 10:28:56;;;;;;;23.60;6.93;;;8.50;91.10;;;;;;5049451;28;20044;-70
2022/01/27 10:31:24;;;;;;;22.83;5.43;;;8.60;91.20;;;;;;5051000;28;20040;-71
2022/01/27 10:33:53;;;;;;;20.98;5.35;;;8.60;90.90;;;;;;5049152;28;20553;-71
2022/01/27 10:36:22;;;;;;;20.17;5.00;;;8.70;90.80;;;;;;5049511;28;20056;-71
2022/01/27 10:38:50;;;;;;;32.75;6.57;;;8.80;90.60;;;;;;5050512;28;20144;-68
2022/01/27 10:41:16;;;;;;;17.38;4.57;;;8.80;90.50;;;;;;5051087;28;20116;-67
2022/01/27 10:43:43;;;;;;;23.52;5.75;;;8.80;90.30;;;;;;5051398;28;20454;-67
2022/01/27 10:46:27;;;;;;;18.42;5.50;;;8.80;90.20;;;;;;5051306;28;20518;-67
2022/01/27 10:49:10;;;;;;;23.00;5.85;;;8.90;89.70;;;;;;5050437;28;20055;-67
2022/01/27 10:51:43;;;;;;;22.52;5.22;;;9.00;89.40;;;;;;5031458;28;20045;-68
2022/01/27 10:54:36;;;;;;;20.25;5.35;;;9.00;89.00;;;;;;5046265;28;20045;-68
2022/01/27 10:57:05;;;;;;;26.65;5.63;;;9.10;89.30;;;;;;5047979;28;20079;-67
2022/01/27 10:59:33;;;;;;;24.85;6.18;;;9.00;89.10;;;;;;5055926;28;20470;-67
2022/01/27 11:02:03;;;;;;;25.13;5.50;;;9.00;89.20;;;;;;5045618;28;20099;-67
2022/01/27 11:04:40;;;;;;;21.60;4.88;;;9.10;89.20;;;;;;5040456;28;20045;-67
2022/01/27 11:07:11;;;;;;;19.63;6.38;;;9.10;89.20;;;;;;5030989;28;20045;-67
2022/01/27 11:09:41;;;;;;;24.30;5.13;;;9.00;89.20;;;;;;5032149;28;20490;-67
2022/01/27 11:12:12;;;;;;;31.08;6.57;;;9.00;89.00;;;;;;5038290;28;20132;-67
2022/01/27 11:14:37;;;;;;;17.85;5.00;;;8.90;88.70;;;;;;5041222;28;20129;-67
2022/01/27 11:17:15;;;;;;;25.73;5.22;;;9.00;88.40;;;;;;5047880;28;20549;-67
2022/01/27 11:27:23;;;;;;;32.75;5.03;;;9.10;88.20;;;;;;5037146;28;20182;-67
2022/01/27 11:30:07;;;;;;;25.55;5.75;;;9.10;88.00;;;;;;5045213;28;20501;-67
2022/01/27 11:32:40;;;;;;;26.75;5.65;;;9.10;88.60;;;;;;5036673;28;20510;-68
2022/01/27 11:35:20;;;;;;;24.08;5.57;;;9.10;88.80;;;;;;5040832;28;20524;-67
2022/01/27 11:38:01;;;;;;;27.58;5.28;;;9.10;88.80;;;;;;5050079;28;20045;-67
2022/01/27 11:40:46;;;;;;;21.25;4.90;;;9.10;88.70;;;;;;5049557;28;20106;-68
2022/01/27 11:43:14;;;;;;;21.48;4.53;;;9.00;88.80;;;;;;5035942;28;20258;-67
2022/01/27 11:45:41;;;;;;;26.75;6.53;;;9.00;88.80;;;;;;5049552;28;20053;-66
2022/01/27 11:48:11;;;;;;;28.27;6.80;;;9.10;88.80;;;;;;5038284;28;20053;-66
2022/01/27 11:50:54;;;;;;;18.95;5.68;;;9.00;88.50;;;;;;5038907;28;20503;-67
2022/01/27 11:53:36;;;;;;;;;;;9.10;88.60;;;;;;5047742;28;20509;-67
2022/01/27 11:56:26;;;;;;;29.70;5.32;;;9.00;88.50;;;;;;5043546;28;20436;-67
2022/01/27 11:59:04;;;;;;;24.58;5.63;;;9.00;88.40;;;;;;5062643;28;20405;-67
2022/01/27 12:01:33;;;;;;;35.78;6.18;;;9.10;88.60;;;;;;5049915;28;20056;-67
2022/01/27 12:04:06;;;;;;;29.83;5.18;;;9.00;88.40;;;;;;5044134;28;20049;-67
2022/01/27 12:06:32;;;;;;;18.30;4.50;;;9.00;88.70;;;;;;5029282;28;20056;-67
2022/01/27 12:09:16;;;;;;;28.65;5.43;;;9.10;88.60;;;;;;5012530;28;20425;-68
2022/01/27 12:11:50;;;;;;;20.50;4.63;;;9.10;88.30;;;;;;5029117;28;20045;-67
2022/01/27 12:14:22;;;;;;;21.10;4.63;;;9.10;88.20;;;;;;5029740;28;20081;-67
2022/01/27 12:17:09;;;;;;;30.65;7.78;;;9.10;88.10;;;;;;5028955;28;20045;-67
2022/01/27 12:20:08;;;;;;;30.23;5.30;;;9.10;87.60;;;;;;5011320;28;20412;-68
2022/01/27 12:22:41;;;;;;;22.13;5.32;;;9.10;87.80;;;;;;5029358;28;20395;-67
2022/01/27 12:25:07;;;;;;;33.30;7.18;;;9.10;87.10;;;;;;5028925;28;20056;-68
2022/01/27 12:27:32;;;;;;;22.65;4.97;;;9.00;87.30;;;;;;5036829;28;20041;-68
2022/01/27 12:29:59;;;;;;;22.80;5.03;;;9.00;87.30;;;;;;5029105;28;20076;-67
2022/01/27 12:32:28;;;;;;;26.48;6.72;;;9.00;87.30;;;;;;5039732;28;20561;-67
2022/01/27 12:34:55;;;;;;;25.13;4.40;;;9.00;87.10;;;;;;5043983;28;20049;-67
2022/01/27 12:37:23;;;;;;;31.55;7.57;;;9.10;87.10;;;;;;5030038;28;20080;-66
2022/01/27 12:40:00;;;;;;;26.55;4.82;;;9.00;87.00;;;;;;5029647;28;20476;-67
2022/01/27 12:42:37;;;;;;;27.77;4.90;;;9.10;87.00;;;;;;5039354;28;20048;-67
2022/01/27 12:45:08;;;;;;;33.70;7.95;;;9.00;86.60;;;;;;5047527;28;20148;-67
2022/01/27 12:47:38;;;;;;;22.80;4.03;;;9.10;86.80;;;;;;5046593;28;20037;-67
2022/01/27 12:50:10;;;;;;;22.45;4.18;;;9.00;85.60;;;;;;5038133;28;20076;-68
2022/01/27 12:52:42;;;;;;;34.17;5.97;;;9.00;86.30;;;;;;5031162;28;20081;-68
2022/01/27 12:55:11;;;;;;;20.88;4.63;;;9.10;85.70;;;;;;5044467;28;20055;-68
2022/01/27 12:57:37;;;;;;;23.52;5.10;;;9.00;85.60;;;;;;5039772;28;20458;-67
2022/01/27 13:00:05;;;;;;;36.65;5.57;;;9.10;85.40;;;;;;5046201;28;20091;-68
2022/01/27 13:02:32;;;;;;;28.05;5.63;;;9.20;84.70;;;;;;5045975;28;20083;-68
2022/01/27 13:04:59;;;;;;;30.98;5.30;;;9.10;85.00;;;;;;5047229;28;20271;-68
2022/01/27 13:07:26;;;;;;;25.08;4.72;;;9.10;84.80;;;;;;5046457;28;20124;-68
2022/01/27 13:09:57;;;;;;;25.45;4.93;;;9.00;84.80;;;;;;5045407;28;20500;-68
2022/01/27 13:12:28;;;;;;;27.45;6.43;;;9.00;85.00;;;;;;5046810;28;20033;-68
2022/01/27 13:15:01;;;;;;;21.40;4.45;;;9.00;85.40;;;;;;5035055;28;20053;-68
2022/01/27 13:17:34;;;;;;;22.85;5.15;;;9.10;84.80;;;;;;5035962;28;20598;-68
2022/01/27 13:22:59;;;;;;;27.27;5.75;;;9.10;84.70;;;;;;5046999;28;20041;-68
2022/01/27 13:25:43;;;;;;;26.85;5.53;;;9.20;84.90;;;;;;5044480;28;20056;-68
2022/01/27 13:28:23;;;;;;;21.02;5.10;;;9.10;85.30;;;;;;5044391;28;20076;-69
2022/01/27 13:31:00;;;;;;;19.48;3.97;;;9.10;85.00;;;;;;5045918;28;20456;-68
2022/01/27 13:33:27;;;;;;;19.92;3.75;;;9.10;85.10;;;;;;5047802;28;20057;-68
2022/01/27 13:35:55;;;;;;;24.95;4.32;;;9.10;85.30;;;;;;5046855;28;20045;-68
2022/01/27 13:38:28;;;;;;;20.15;4.32;;;9.00;85.20;;;;;;5047535;28;20045;-68
2022/01/27 13:41:22;;;;;;;28.55;5.13;;;9.10;84.70;;;;;;5047813;28;20048;-68
2022/01/27 13:43:51;;;;;;;20.30;3.10;;;9.10;84.50;;;;;;5047810;28;20557;-69
2022/01/27 13:46:45;;;;;;;26.48;4.55;;;9.10;84.60;;;;;;5047716;28;20561;-68
2022/01/27 13:49:13;;;;;;;20.65;4.13;;;9.10;84.00;;;;;;5046473;28;20430;-68
2022/01/27 13:51:53;;;;;;;24.80;5.38;;;8.90;84.50;;;;;;5047647;28;20052;-68